sensor_id;sensor_type;location;lat;lon;timestamp;temperature;humidity
28247;DHT22;66191;53.178;22.058;2023-03-16T00:01:40;1.80;99.90
28247;DHT22;66191;53.178;22.058;2023-03-16T00:04:11;1.80;99.90
28247;DHT22;66191;53.178;22.058;2023-03-16T00:06:42;1.70;99.90
28247;DHT22;66191;53.178;22.058;2023-03-16T00:09:13;1.80;99.90
28247;DHT22;66191;53.178;22.058;2023-03-16T00:11:45;1.70;99.90
28247;DHT22;66191;53.178;22.058;2023-03-16T00:14:18;1.70;99.90
28247;DHT22;66191;53.178;22.058;2023-03-16T00:16:50;1.60;99.90
28247;DHT22;66191;53.178;22.058;2023-03-16T00:19:20;1.60;99.90
28247;DHT22;66191;53.178;22.058;2023-03-16T00:21:51;1.60;99.90
28247;DHT22;66191;53.178;22.058;2023-03-16T00:24:22;1.60;99.90
28247;DHT22;66191;53.178;22.058;2023-03-16T00:26:53;1.60;99.90
28247;DHT22;66191;53.178;22.058;2023-03-16T00:29:26;1.50;99.90
28247;DHT22;66191;53.178;22.058;2023-03-16T00:32:01;1.50;99.90
28247;DHT22;66191;53.178;22.058;2023-03-16T00:34:32;1.40;99.90
28247;DHT22;66191;53.178;22.058;2023-03-16T00:37:03;1.40;99.90
28247;DHT22;66191;53.178;22.058;2023-03-16T00:39:34;1.40;99.90
28247;DHT22;66191;53.178;22.058;2023-03-16T00:42:05;1.40;99.90
28247;DHT22;66191;53.178;22.058;2023-03-16T00:44:38;1.30;99.90
28247;DHT22;66191;53.178;22.058;2023-03-16T00:47:10;1.30;99.90
28247;DHT22;66191;53.178;22.058;2023-03-16T00:49:42;1.40;99.90
28247;DHT22;66191;53.178;22.058;2023-03-16T00:52:13;1.30;99.90
28247;DHT22;66191;53.178;22.058;2023-03-16T00:54:45;1.30;99.90
28247;DHT22;66191;53.178;22.058;2023-03-16T00:57:17;1.40;99.90
28247;DHT22;66191;53.178;22.058;2023-03-16T00:59:51;1.30;99.90
28247;DHT22;66191;53.178;22.058;2023-03-16T01:02:22;1.30;99.90
28247;DHT22;66191;53.178;22.058;2023-03-16T01:04:52;1.30;99.90
28247;DHT22;66191;53.178;22.058;2023-03-16T01:07:25;1.30;99.90
28247;DHT22;66191;53.178;22.058;2023-03-16T01:09:57;1.20;99.90
28247;DHT22;66191;53.178;22.058;2023-03-16T01:12:28;1.20;99.90
28247;DHT22;66191;53.178;22.058;2023-03-16T01:15:03;1.20;99.90
28247;DHT22;66191;53.178;22.058;2023-03-16T01:17:34;1.20;99.90
28247;DHT22;66191;53.178;22.058;2023-03-16T01:20:05;1.20;99.90
28247;DHT22;66191;53.178;22.058;2023-03-16T01:22:38;1.10;99.90
28247;DHT22;66191;53.178;22.058;2023-03-16T01:25:09;1.10;99.90
28247;DHT22;66191;53.178;22.058;2023-03-16T01:27:41;1.10;99.90
28247;DHT22;66191;53.178;22.058;2023-03-16T01:30:15;1.10;99.90
28247;DHT22;66191;53.178;22.058;2023-03-16T01:32:46;1.10;99.90
28247;DHT22;66191;53.178;22.058;2023-03-16T01:35:16;1.00;99.90
28247;DHT22;66191;53.178;22.058;2023-03-16T01:37:49;1.00;99.90
28247;DHT22;66191;53.178;22.058;2023-03-16T01:40:23;1.00;99.90
28247;DHT22;66191;53.178;22.058;2023-03-16T01:42:58;1.00;99.90
28247;DHT22;66191;53.178;22.058;2023-03-16T01:48:23;1.00;99.90
28247;DHT22;66191;53.178;22.058;2023-03-16T01:50:55;0.90;99.90
28247;DHT22;66191;53.178;22.058;2023-03-16T01:53:26;0.90;99.90
28247;DHT22;66191;53.178;22.058;2023-03-16T01:55:56;0.90;99.90
28247;DHT22;66191;53.178;22.058;2023-03-16T01:58:28;0.90;99.90
28247;DHT22;66191;53.178;22.058;2023-03-16T02:00:59;0.90;99.90
28247;DHT22;66191;53.178;22.058;2023-03-16T02:03:33;0.90;99.90
28247;DHT22;66191;53.178;22.058;2023-03-16T02:06:14;0.90;99.90
28247;DHT22;66191;53.178;22.058;2023-03-16T02:08:51;0.90;99.90
28247;DHT22;66191;53.178;22.058;2023-03-16T02:11:24;0.90;99.90
28247;DHT22;66191;53.178;22.058;2023-03-16T02:14:03;0.80;99.90
28247;DHT22;66191;53.178;22.058;2023-03-16T02:16:35;0.80;99.90
28247;DHT22;66191;53.178;22.058;2023-03-16T02:19:10;0.80;99.90
28247;DHT22;66191;53.178;22.058;2023-03-16T02:21:43;0.70;99.90
28247;DHT22;66191;53.178;22.058;2023-03-16T02:24:21;0.70;99.90
28247;DHT22;66191;53.178;22.058;2023-03-16T02:26:52;0.70;99.90
28247;DHT22;66191;53.178;22.058;2023-03-16T02:32:16;0.70;99.90
28247;DHT22;66191;53.178;22.058;2023-03-16T02:34:48;0.70;99.90
28247;DHT22;66191;53.178;22.058;2023-03-16T02:37:19;0.70;99.90
28247;DHT22;66191;53.178;22.058;2023-03-16T02:39:50;0.60;99.90
28247;DHT22;66191;53.178;22.058;2023-03-16T02:42:22;0.60;99.90
28247;DHT22;66191;53.178;22.058;2023-03-16T02:44:58;0.60;99.90
28247;DHT22;66191;53.178;22.058;2023-03-16T02:47:37;0.60;99.90
28247;DHT22;66191;53.178;22.058;2023-03-16T02:50:10;0.60;99.90
28247;DHT22;66191;53.178;22.058;2023-03-16T02:52:41;0.60;99.90
28247;DHT22;66191;53.178;22.058;2023-03-16T02:55:14;0.60;99.90
28247;DHT22;66191;53.178;22.058;2023-03-16T02:57:46;0.60;99.90
28247;DHT22;66191;53.178;22.058;2023-03-16T03:00:18;0.60;99.90
28247;DHT22;66191;53.178;22.058;2023-03-16T03:02:53;0.60;99.90
28247;DHT22;66191;53.178;22.058;2023-03-16T03:05:25;0.60;99.90
28247;DHT22;66191;53.178;22.058;2023-03-16T03:07:55;0.60;99.90
28247;DHT22;66191;53.178;22.058;2023-03-16T03:10:26;0.60;99.90
28247;DHT22;66191;53.178;22.058;2023-03-16T03:12:57;0.60;99.90
28247;DHT22;66191;53.178;22.058;2023-03-16T03:15:29;0.60;99.90
28247;DHT22;66191;53.178;22.058;2023-03-16T03:18:07;0.60;99.90
28247;DHT22;66191;53.178;22.058;2023-03-16T03:20:39;0.50;99.90
28247;DHT22;66191;53.178;22.058;2023-03-16T03:23:10;0.50;99.90
28247;DHT22;66191;53.178;22.058;2023-03-16T03:25:42;0.50;99.90
28247;DHT22;66191;53.178;22.058;2023-03-16T03:28:13;0.40;99.90
28247;DHT22;66191;53.178;22.058;2023-03-16T03:30:44;0.40;99.90
28247;DHT22;66191;53.178;22.058;2023-03-16T03:33:17;0.40;99.90
28247;DHT22;66191;53.178;22.058;2023-03-16T03:35:52;0.40;99.90
28247;DHT22;66191;53.178;22.058;2023-03-16T03:38:25;0.40;99.90
28247;DHT22;66191;53.178;22.058;2023-03-16T03:40:56;0.40;99.90
28247;DHT22;66191;53.178;22.058;2023-03-16T03:43:31;0.40;99.90
28247;DHT22;66191;53.178;22.058;2023-03-16T03:46:03;0.40;99.90
28247;DHT22;66191;53.178;22.058;2023-03-16T03:48:36;0.30;99.90
28247;DHT22;66191;53.178;22.058;2023-03-16T03:51:07;0.30;99.90
28247;DHT22;66191;53.178;22.058;2023-03-16T03:53:48;0.30;99.90
28247;DHT22;66191;53.178;22.058;2023-03-16T03:56:45;0.30;99.90
28247;DHT22;66191;53.178;22.058;2023-03-16T03:59:16;0.20;99.90
28247;DHT22;66191;53.178;22.058;2023-03-16T04:02:26;0.20;99.90
28247;DHT22;66191;53.178;22.058;2023-03-16T04:04:59;0.30;99.90
28247;DHT22;66191;53.178;22.058;2023-03-16T04:07:30;0.20;99.90
28247;DHT22;66191;53.178;22.058;2023-03-16T04:10:05;0.20;99.90
28247;DHT22;66191;53.178;22.058;2023-03-16T04:12:39;0.20;99.90
28247;DHT22;66191;53.178;22.058;2023-03-16T04:15:13;0.20;99.90
28247;DHT22;66191;53.178;22.058;2023-03-16T04:17:54;0.20;99.90
28247;DHT22;66191;53.178;22.058;2023-03-16T04:20:27;0.10;99.90
28247;DHT22;66191;53.178;22.058;2023-03-16T04:22:58;0.20;99.90
28247;DHT22;66191;53.178;22.058;2023-03-16T04:25:30;0.10;99.90
28247;DHT22;66191;53.178;22.058;2023-03-16T04:28:03;0.10;99.90
28247;DHT22;66191;53.178;22.058;2023-03-16T04:30:35;0.10;99.90
28247;DHT22;66191;53.178;22.058;2023-03-16T04:33:19;0.10;99.90
28247;DHT22;66191;53.178;22.058;2023-03-16T04:35:52;0.10;99.90
28247;DHT22;66191;53.178;22.058;2023-03-16T04:38:25;0.10;99.90
28247;DHT22;66191;53.178;22.058;2023-03-16T04:40:59;0.00;99.90
28247;DHT22;66191;53.178;22.058;2023-03-16T04:43:34;0.10;99.90
28247;DHT22;66191;53.178;22.058;2023-03-16T04:46:14;0.00;99.90
28247;DHT22;66191;53.178;22.058;2023-03-16T04:48:45;0.00;99.90
28247;DHT22;66191;53.178;22.058;2023-03-16T04:51:18;0.00;99.90
28247;DHT22;66191;53.178;22.058;2023-03-16T04:54:00;0.10;99.90
28247;DHT22;66191;53.178;22.058;2023-03-16T04:56:34;0.00;99.90
28247;DHT22;66191;53.178;22.058;2023-03-16T04:59:19;0.00;99.90
28247;DHT22;66191;53.178;22.058;2023-03-16T05:01:58;0.00;99.90
28247;DHT22;66191;53.178;22.058;2023-03-16T05:04:31;0.00;99.90
28247;DHT22;66191;53.178;22.058;2023-03-16T05:07:05;0.00;99.90
28247;DHT22;66191;53.178;22.058;2023-03-16T05:09:39;0.00;99.90
28247;DHT22;66191;53.178;22.058;2023-03-16T05:12:09;0.00;99.90
28247;DHT22;66191;53.178;22.058;2023-03-16T05:14:42;0.00;99.90
28247;DHT22;66191;53.178;22.058;2023-03-16T05:17:32;0.00;99.90
28247;DHT22;66191;53.178;22.058;2023-03-16T05:20:05;0.00;99.90
28247;DHT22;66191;53.178;22.058;2023-03-16T05:22:48;0.10;99.90
28247;DHT22;66191;53.178;22.058;2023-03-16T05:25:24;0.10;99.90
28247;DHT22;66191;53.178;22.058;2023-03-16T05:27:56;0.20;99.90
28247;DHT22;66191;53.178;22.058;2023-03-16T05:30:35;0.30;99.90
28247;DHT22;66191;53.178;22.058;2023-03-16T05:33:10;0.40;99.90
28247;DHT22;66191;53.178;22.058;2023-03-16T05:35:43;0.40;99.90
28247;DHT22;66191;53.178;22.058;2023-03-16T05:38:17;0.50;99.90
28247;DHT22;66191;53.178;22.058;2023-03-16T05:40:49;0.60;99.90
28247;DHT22;66191;53.178;22.058;2023-03-16T05:43:38;0.60;99.90
28247;DHT22;66191;53.178;22.058;2023-03-16T05:46:10;0.70;99.90
28247;DHT22;66191;53.178;22.058;2023-03-16T05:48:41;0.80;99.90
28247;DHT22;66191;53.178;22.058;2023-03-16T05:51:14;0.90;99.90
28247;DHT22;66191;53.178;22.058;2023-03-16T05:53:49;1.00;99.90
28247;DHT22;66191;53.178;22.058;2023-03-16T05:56:38;1.10;99.90
28247;DHT22;66191;53.178;22.058;2023-03-16T05:59:10;1.20;99.90
28247;DHT22;66191;53.178;22.058;2023-03-16T06:01:41;1.30;99.90
28247;DHT22;66191;53.178;22.058;2023-03-16T06:04:13;1.40;99.90
28247;DHT22;66191;53.178;22.058;2023-03-16T06:06:44;1.40;99.90
28247;DHT22;66191;53.178;22.058;2023-03-16T06:09:27;1.50;99.90
28247;DHT22;66191;53.178;22.058;2023-03-16T06:11:59;1.60;99.90
28247;DHT22;66191;53.178;22.058;2023-03-16T06:14:31;1.70;99.90
28247;DHT22;66191;53.178;22.058;2023-03-16T06:17:03;1.80;99.90
28247;DHT22;66191;53.178;22.058;2023-03-16T06:19:34;1.90;99.90
28247;DHT22;66191;53.178;22.058;2023-03-16T06:22:06;2.00;99.90
28247;DHT22;66191;53.178;22.058;2023-03-16T06:24:41;2.00;99.90
28247;DHT22;66191;53.178;22.058;2023-03-16T06:27:14;2.10;99.90
28247;DHT22;66191;53.178;22.058;2023-03-16T06:29:58;2.10;99.90
28247;DHT22;66191;53.178;22.058;2023-03-16T06:32:30;2.20;99.90
28247;DHT22;66191;53.178;22.058;2023-03-16T06:35:00;2.30;99.90
28247;DHT22;66191;53.178;22.058;2023-03-16T06:37:33;2.30;99.90
28247;DHT22;66191;53.178;22.058;2023-03-16T06:40:20;2.40;99.90
28247;DHT22;66191;53.178;22.058;2023-03-16T06:42:52;2.40;99.90
28247;DHT22;66191;53.178;22.058;2023-03-16T06:45:23;2.50;99.90
28247;DHT22;66191;53.178;22.058;2023-03-16T06:47:56;2.50;99.90
28247;DHT22;66191;53.178;22.058;2023-03-16T06:50:27;2.50;99.90
28247;DHT22;66191;53.178;22.058;2023-03-16T06:52:58;2.60;99.90
28247;DHT22;66191;53.178;22.058;2023-03-16T06:55:38;2.60;99.60
28247;DHT22;66191;53.178;22.058;2023-03-16T06:58:09;2.70;99.50
28247;DHT22;66191;53.178;22.058;2023-03-16T07:00:40;2.70;99.60
28247;DHT22;66191;53.178;22.058;2023-03-16T07:03:11;2.80;99.80
28247;DHT22;66191;53.178;22.058;2023-03-16T07:05:47;2.80;99.70
28247;DHT22;66191;53.178;22.058;2023-03-16T07:08:18;2.80;99.70
28247;DHT22;66191;53.178;22.058;2023-03-16T07:10:52;2.90;99.50
28247;DHT22;66191;53.178;22.058;2023-03-16T07:13:24;2.90;98.80
28247;DHT22;66191;53.178;22.058;2023-03-16T07:15:54;2.90;98.70
28247;DHT22;66191;53.178;22.058;2023-03-16T07:18:26;2.90;98.80
28247;DHT22;66191;53.178;22.058;2023-03-16T07:20:58;3.00;98.70
28247;DHT22;66191;53.178;22.058;2023-03-16T07:23:30;2.90;98.60
28247;DHT22;66191;53.178;22.058;2023-03-16T07:26:07;3.00;98.60
28247;DHT22;66191;53.178;22.058;2023-03-16T07:28:48;3.00;98.50
28247;DHT22;66191;53.178;22.058;2023-03-16T07:31:21;3.00;98.70
28247;DHT22;66191;53.178;22.058;2023-03-16T07:33:55;3.10;98.70
28247;DHT22;66191;53.178;22.058;2023-03-16T07:36:35;3.10;98.50
28247;DHT22;66191;53.178;22.058;2023-03-16T07:39:06;3.10;98.70
28247;DHT22;66191;53.178;22.058;2023-03-16T07:41:47;3.20;98.90
28247;DHT22;66191;53.178;22.058;2023-03-16T07:44:29;3.20;98.30
28247;DHT22;66191;53.178;22.058;2023-03-16T07:47:00;3.20;98.50
28247;DHT22;66191;53.178;22.058;2023-03-16T07:49:32;3.30;98.40
28247;DHT22;66191;53.178;22.058;2023-03-16T07:52:03;3.30;98.30
28247;DHT22;66191;53.178;22.058;2023-03-16T07:54:39;3.40;98.40
28247;DHT22;66191;53.178;22.058;2023-03-16T07:57:14;3.50;98.30
28247;DHT22;66191;53.178;22.058;2023-03-16T07:59:45;3.50;98.30
28247;DHT22;66191;53.178;22.058;2023-03-16T08:02:17;3.60;98.30
28247;DHT22;66191;53.178;22.058;2023-03-16T08:04:50;3.60;98.10
28247;DHT22;66191;53.178;22.058;2023-03-16T08:07:22;3.70;97.80
28247;DHT22;66191;53.178;22.058;2023-03-16T08:10:03;3.80;97.80
28247;DHT22;66191;53.178;22.058;2023-03-16T08:12:45;3.80;97.50
28247;DHT22;66191;53.178;22.058;2023-03-16T08:15:17;3.90;97.60
28247;DHT22;66191;53.178;22.058;2023-03-16T08:17:51;4.00;97.50
28247;DHT22;66191;53.178;22.058;2023-03-16T08:20:25;4.00;97.60
28247;DHT22;66191;53.178;22.058;2023-03-16T08:22:57;4.10;97.40
28247;DHT22;66191;53.178;22.058;2023-03-16T08:25:37;4.20;97.10
28247;DHT22;66191;53.178;22.058;2023-03-16T08:28:15;4.20;97.00
28247;DHT22;66191;53.178;22.058;2023-03-16T08:30:49;4.20;96.60
28247;DHT22;66191;53.178;22.058;2023-03-16T08:33:36;4.30;96.60
28247;DHT22;66191;53.178;22.058;2023-03-16T08:36:09;4.30;96.60
28247;DHT22;66191;53.178;22.058;2023-03-16T08:38:45;4.40;96.80
28247;DHT22;66191;53.178;22.058;2023-03-16T08:41:35;4.40;96.60
28247;DHT22;66191;53.178;22.058;2023-03-16T08:44:21;4.50;96.10
28247;DHT22;66191;53.178;22.058;2023-03-16T08:46:54;4.60;96.10
28247;DHT22;66191;53.178;22.058;2023-03-16T08:49:26;4.60;95.70
28247;DHT22;66191;53.178;22.058;2023-03-16T08:52:03;4.60;94.70
28247;DHT22;66191;53.178;22.058;2023-03-16T08:54:36;4.60;94.30
28247;DHT22;66191;53.178;22.058;2023-03-16T08:57:19;4.60;94.80
28247;DHT22;66191;53.178;22.058;2023-03-16T08:59:53;4.70;94.50
28247;DHT22;66191;53.178;22.058;2023-03-16T09:02:24;4.80;94.60
28247;DHT22;66191;53.178;22.058;2023-03-16T09:04:55;4.80;94.70
28247;DHT22;66191;53.178;22.058;2023-03-16T09:07:27;4.90;94.50
28247;DHT22;66191;53.178;22.058;2023-03-16T09:10:02;5.00;94.10
28247;DHT22;66191;53.178;22.058;2023-03-16T09:12:34;5.00;94.10
28247;DHT22;66191;53.178;22.058;2023-03-16T09:15:08;5.10;94.00
28247;DHT22;66191;53.178;22.058;2023-03-16T09:17:41;5.20;93.90
28247;DHT22;66191;53.178;22.058;2023-03-16T09:20:13;5.30;93.60
28247;DHT22;66191;53.178;22.058;2023-03-16T09:22:53;5.40;93.30
28247;DHT22;66191;53.178;22.058;2023-03-16T09:25:24;5.50;93.40
28247;DHT22;66191;53.178;22.058;2023-03-16T09:27:55;5.50;93.10
28247;DHT22;66191;53.178;22.058;2023-03-16T09:30:29;5.60;93.10
28247;DHT22;66191;53.178;22.058;2023-03-16T09:33:01;5.70;92.80
28247;DHT22;66191;53.178;22.058;2023-03-16T09:35:32;5.70;92.40
28247;DHT22;66191;53.178;22.058;2023-03-16T09:38:04;5.80;92.10
28247;DHT22;66191;53.178;22.058;2023-03-16T09:40:35;5.80;91.80
28247;DHT22;66191;53.178;22.058;2023-03-16T09:43:13;5.90;92.10
28247;DHT22;66191;53.178;22.058;2023-03-16T09:45:50;6.00;92.20
28247;DHT22;66191;53.178;22.058;2023-03-16T09:48:26;6.10;92.00
28247;DHT22;66191;53.178;22.058;2023-03-16T09:50:58;6.10;91.30
28247;DHT22;66191;53.178;22.058;2023-03-16T09:53:30;6.20;90.80
28247;DHT22;66191;53.178;22.058;2023-03-16T09:56:04;6.30;90.30
28247;DHT22;66191;53.178;22.058;2023-03-16T09:58:36;6.40;89.20
28247;DHT22;66191;53.178;22.058;2023-03-16T10:01:11;6.50;88.40
28247;DHT22;66191;53.178;22.058;2023-03-16T10:04:01;6.60;87.90
28247;DHT22;66191;53.178;22.058;2023-03-16T10:06:42;6.70;85.20
28247;DHT22;66191;53.178;22.058;2023-03-16T10:09:17;6.80;85.40
28247;DHT22;66191;53.178;22.058;2023-03-16T10:11:54;6.80;84.50
28247;DHT22;66191;53.178;22.058;2023-03-16T10:14:27;6.90;84.10
28247;DHT22;66191;53.178;22.058;2023-03-16T10:17:03;7.00;83.60
28247;DHT22;66191;53.178;22.058;2023-03-16T10:19:36;7.10;81.70
28247;DHT22;66191;53.178;22.058;2023-03-16T10:22:12;7.10;80.20
28247;DHT22;66191;53.178;22.058;2023-03-16T10:24:49;6.90;77.50
28247;DHT22;66191;53.178;22.058;2023-03-16T10:27:24;6.80;77.60
28247;DHT22;66191;53.178;22.058;2023-03-16T10:29:57;6.70;76.30
28247;DHT22;66191;53.178;22.058;2023-03-16T10:32:32;6.70;78.10
28247;DHT22;66191;53.178;22.058;2023-03-16T10:35:06;6.70;78.60
28247;DHT22;66191;53.178;22.058;2023-03-16T10:37:43;6.70;78.70
28247;DHT22;66191;53.178;22.058;2023-03-16T10:40:16;6.70;76.10
28247;DHT22;66191;53.178;22.058;2023-03-16T10:42:47;6.60;77.40
28247;DHT22;66191;53.178;22.058;2023-03-16T10:45:19;6.60;75.50
28247;DHT22;66191;53.178;22.058;2023-03-16T10:48:06;6.70;77.30
28247;DHT22;66191;53.178;22.058;2023-03-16T10:50:39;6.80;77.50
28247;DHT22;66191;53.178;22.058;2023-03-16T10:53:14;6.90;78.30
28247;DHT22;66191;53.178;22.058;2023-03-16T10:55:46;7.10;77.60
28247;DHT22;66191;53.178;22.058;2023-03-16T10:58:21;7.20;77.70
28247;DHT22;66191;53.178;22.058;2023-03-16T11:00:56;7.40;76.00
28247;DHT22;66191;53.178;22.058;2023-03-16T11:03:30;7.50;75.60
28247;DHT22;66191;53.178;22.058;2023-03-16T11:06:04;7.50;75.50
28247;DHT22;66191;53.178;22.058;2023-03-16T11:08:36;7.60;75.40
28247;DHT22;66191;53.178;22.058;2023-03-16T11:11:09;7.60;75.10
28247;DHT22;66191;53.178;22.058;2023-03-16T11:13:42;7.60;74.40
28247;DHT22;66191;53.178;22.058;2023-03-16T11:16:19;7.60;73.70
28247;DHT22;66191;53.178;22.058;2023-03-16T11:18:55;7.60;72.90
28247;DHT22;66191;53.178;22.058;2023-03-16T11:21:32;7.50;71.40
28247;DHT22;66191;53.178;22.058;2023-03-16T11:24:05;7.50;70.10
28247;DHT22;66191;53.178;22.058;2023-03-16T11:26:40;7.40;70.40
28247;DHT22;66191;53.178;22.058;2023-03-16T11:29:16;7.40;70.90
28247;DHT22;66191;53.178;22.058;2023-03-16T11:31:48;7.50;71.00
28247;DHT22;66191;53.178;22.058;2023-03-16T11:34:25;7.60;70.30
28247;DHT22;66191;53.178;22.058;2023-03-16T11:37:02;7.70;69.10
28247;DHT22;66191;53.178;22.058;2023-03-16T11:39:36;7.80;65.20
28247;DHT22;66191;53.178;22.058;2023-03-16T11:42:15;7.70;64.90
28247;DHT22;66191;53.178;22.058;2023-03-16T11:44:50;7.70;67.40
28247;DHT22;66191;53.178;22.058;2023-03-16T11:47:33;7.70;66.90
28247;DHT22;66191;53.178;22.058;2023-03-16T11:50:12;7.70;67.30
28247;DHT22;66191;53.178;22.058;2023-03-16T11:52:45;7.70;67.20
28247;DHT22;66191;53.178;22.058;2023-03-16T11:55:23;7.70;65.50
28247;DHT22;66191;53.178;22.058;2023-03-16T11:58:02;7.60;66.50
28247;DHT22;66191;53.178;22.058;2023-03-16T12:00:39;7.60;67.40
28247;DHT22;66191;53.178;22.058;2023-03-16T12:03:34;7.70;67.30
28247;DHT22;66191;53.178;22.058;2023-03-16T12:06:15;7.80;68.40
28247;DHT22;66191;53.178;22.058;2023-03-16T12:11:43;8.00;67.30
28247;DHT22;66191;53.178;22.058;2023-03-16T12:14:19;8.10;63.70
28247;DHT22;66191;53.178;22.058;2023-03-16T12:16:56;8.00;64.80
28247;DHT22;66191;53.178;22.058;2023-03-16T12:19:32;8.00;65.80
28247;DHT22;66191;53.178;22.058;2023-03-16T12:22:10;8.00;65.60
28247;DHT22;66191;53.178;22.058;2023-03-16T12:24:44;8.00;65.90
28247;DHT22;66191;53.178;22.058;2023-03-16T12:27:16;8.00;65.10
28247;DHT22;66191;53.178;22.058;2023-03-16T12:29:54;8.00;65.60
28247;DHT22;66191;53.178;22.058;2023-03-16T12:32:30;8.10;65.90
28247;DHT22;66191;53.178;22.058;2023-03-16T12:35:05;8.10;63.10
28247;DHT22;66191;53.178;22.058;2023-03-16T12:37:47;8.10;64.20
28247;DHT22;66191;53.178;22.058;2023-03-16T12:40:23;8.00;58.60
28247;DHT22;66191;53.178;22.058;2023-03-16T12:42:59;7.90;58.60
28247;DHT22;66191;53.178;22.058;2023-03-16T12:45:33;7.90;59.80
28247;DHT22;66191;53.178;22.058;2023-03-16T12:48:10;7.90;62.10
28247;DHT22;66191;53.178;22.058;2023-03-16T12:50:47;8.00;62.30
28247;DHT22;66191;53.178;22.058;2023-03-16T12:53:39;8.10;62.50
28247;DHT22;66191;53.178;22.058;2023-03-16T12:56:11;8.20;61.70
28247;DHT22;66191;53.178;22.058;2023-03-16T12:58:44;8.10;59.60
28247;DHT22;66191;53.178;22.058;2023-03-16T13:01:16;8.10;61.10
28247;DHT22;66191;53.178;22.058;2023-03-16T13:03:48;8.20;62.80
28247;DHT22;66191;53.178;22.058;2023-03-16T13:06:21;8.30;63.70
28247;DHT22;66191;53.178;22.058;2023-03-16T13:08:55;8.40;63.70
28247;DHT22;66191;53.178;22.058;2023-03-16T13:11:28;8.50;64.10
28247;DHT22;66191;53.178;22.058;2023-03-16T13:14:12;8.60;62.20
28247;DHT22;66191;53.178;22.058;2023-03-16T13:16:46;8.60;62.10
28247;DHT22;66191;53.178;22.058;2023-03-16T13:19:24;8.70;61.80
28247;DHT22;66191;53.178;22.058;2023-03-16T13:21:59;8.70;62.50
28247;DHT22;66191;53.178;22.058;2023-03-16T13:24:38;8.70;63.30
28247;DHT22;66191;53.178;22.058;2023-03-16T13:27:14;8.80;61.30
28247;DHT22;66191;53.178;22.058;2023-03-16T13:29:51;8.80;60.40
28247;DHT22;66191;53.178;22.058;2023-03-16T13:32:24;8.80;58.90
28247;DHT22;66191;53.178;22.058;2023-03-16T13:34:57;8.80;60.20
28247;DHT22;66191;53.178;22.058;2023-03-16T13:37:28;8.80;61.40
28247;DHT22;66191;53.178;22.058;2023-03-16T13:40:03;8.90;61.30
28247;DHT22;66191;53.178;22.058;2023-03-16T13:42:34;8.80;61.10
28247;DHT22;66191;53.178;22.058;2023-03-16T13:45:10;8.90;62.10
28247;DHT22;66191;53.178;22.058;2023-03-16T13:47:43;8.90;61.80
28247;DHT22;66191;53.178;22.058;2023-03-16T13:50:14;8.90;61.50
28247;DHT22;66191;53.178;22.058;2023-03-16T13:52:51;8.80;61.60
28247;DHT22;66191;53.178;22.058;2023-03-16T13:55:29;8.80;61.80
28247;DHT22;66191;53.178;22.058;2023-03-16T13:58:01;8.70;60.90
28247;DHT22;66191;53.178;22.058;2023-03-16T14:00:34;8.60;60.00
28247;DHT22;66191;53.178;22.058;2023-03-16T14:03:08;8.40;61.60
28247;DHT22;66191;53.178;22.058;2023-03-16T14:05:43;8.40;62.10
28247;DHT22;66191;53.178;22.058;2023-03-16T14:08:15;8.30;62.50
28247;DHT22;66191;53.178;22.058;2023-03-16T14:10:48;8.20;62.10
28247;DHT22;66191;53.178;22.058;2023-03-16T14:13:24;8.00;63.60
28247;DHT22;66191;53.178;22.058;2023-03-16T14:15:55;7.80;64.10
28247;DHT22;66191;53.178;22.058;2023-03-16T14:18:29;7.70;65.00
28247;DHT22;66191;53.178;22.058;2023-03-16T14:21:04;7.60;65.60
28247;DHT22;66191;53.178;22.058;2023-03-16T14:23:37;7.50;66.30
28247;DHT22;66191;53.178;22.058;2023-03-16T14:26:15;7.40;67.00
28247;DHT22;66191;53.178;22.058;2023-03-16T14:28:53;7.40;68.70
28247;DHT22;66191;53.178;22.058;2023-03-16T14:31:35;7.30;70.10
28247;DHT22;66191;53.178;22.058;2023-03-16T14:34:18;7.20;72.00
28247;DHT22;66191;53.178;22.058;2023-03-16T14:36:51;7.10;72.60
28247;DHT22;66191;53.178;22.058;2023-03-16T14:39:22;7.00;75.50
28247;DHT22;66191;53.178;22.058;2023-03-16T14:42:00;7.00;76.80
28247;DHT22;66191;53.178;22.058;2023-03-16T14:44:33;7.00;75.70
28247;DHT22;66191;53.178;22.058;2023-03-16T14:47:05;7.00;75.60
28247;DHT22;66191;53.178;22.058;2023-03-16T14:49:36;7.10;76.70
28247;DHT22;66191;53.178;22.058;2023-03-16T14:52:13;7.10;76.60
28247;DHT22;66191;53.178;22.058;2023-03-16T14:54:48;7.20;76.40
28247;DHT22;66191;53.178;22.058;2023-03-16T14:57:22;7.30;76.80
28247;DHT22;66191;53.178;22.058;2023-03-16T14:59:54;7.30;75.70
28247;DHT22;66191;53.178;22.058;2023-03-16T15:02:26;7.30;76.10
28247;DHT22;66191;53.178;22.058;2023-03-16T15:04:58;7.40;76.50
28247;DHT22;66191;53.178;22.058;2023-03-16T15:07:30;7.50;77.00
28247;DHT22;66191;53.178;22.058;2023-03-16T15:10:04;7.40;76.10
28247;DHT22;66191;53.178;22.058;2023-03-16T15:12:39;7.40;76.10
28247;DHT22;66191;53.178;22.058;2023-03-16T15:15:17;7.50;76.90
28247;DHT22;66191;53.178;22.058;2023-03-16T15:17:49;7.40;74.70
28247;DHT22;66191;53.178;22.058;2023-03-16T15:20:21;7.30;75.70
28247;DHT22;66191;53.178;22.058;2023-03-16T15:22:53;7.30;75.50
28247;DHT22;66191;53.178;22.058;2023-03-16T15:25:28;7.30;74.90
28247;DHT22;66191;53.178;22.058;2023-03-16T15:28:07;7.20;75.40
28247;DHT22;66191;53.178;22.058;2023-03-16T15:30:41;7.10;75.80
28247;DHT22;66191;53.178;22.058;2023-03-16T15:33:12;7.10;76.30
28247;DHT22;66191;53.178;22.058;2023-03-16T15:35:44;7.10;76.10
28247;DHT22;66191;53.178;22.058;2023-03-16T15:38:17;7.00;75.80
28247;DHT22;66191;53.178;22.058;2023-03-16T15:40:51;6.90;76.50
28247;DHT22;66191;53.178;22.058;2023-03-16T15:43:25;6.90;76.30
28247;DHT22;66191;53.178;22.058;2023-03-16T15:45:57;6.80;76.60
28247;DHT22;66191;53.178;22.058;2023-03-16T15:48:33;6.80;77.20
28247;DHT22;66191;53.178;22.058;2023-03-16T15:51:06;6.70;77.70
28247;DHT22;66191;53.178;22.058;2023-03-16T15:53:38;6.60;77.90
28247;DHT22;66191;53.178;22.058;2023-03-16T15:56:12;6.50;78.00
28247;DHT22;66191;53.178;22.058;2023-03-16T15:58:46;6.40;78.70
28247;DHT22;66191;53.178;22.058;2023-03-16T16:01:19;6.30;78.90
28247;DHT22;66191;53.178;22.058;2023-03-16T16:03:51;6.20;79.30
28247;DHT22;66191;53.178;22.058;2023-03-16T16:06:22;6.10;79.50
28247;DHT22;66191;53.178;22.058;2023-03-16T16:08:55;6.00;79.50
28247;DHT22;66191;53.178;22.058;2023-03-16T16:11:26;5.90;79.90
28247;DHT22;66191;53.178;22.058;2023-03-16T16:14:00;5.90;80.30
28247;DHT22;66191;53.178;22.058;2023-03-16T16:16:31;5.80;80.60
28247;DHT22;66191;53.178;22.058;2023-03-16T16:19:04;5.80;80.70
28247;DHT22;66191;53.178;22.058;2023-03-16T16:21:35;5.80;81.10
28247;DHT22;66191;53.178;22.058;2023-03-16T16:24:06;5.80;81.40